PWSweather.com
Personal Weather Stations
Station Observations

AwhituWaiuku, CA 268400

Lat: -37.058, Lon: -174.6346

Elevation: 250

Station Type: Personal

http://www.weather-display.com/windy/gb/grahamsbeach.htm

High Low Average
Temperature 64.0°F17.8°F 56.1°F13.4°F 60.2°F15.7°F
Dew Point 63.4°F17.4°F 55.6°F13.1°F 59.6°F15.3°F
Winds 34.5 mph W55.5 mph W 11.5 mph 18.5 mph 24.3 mph 39.1 mph
Wind Gusts 41.4 mph66.6 mph 16.1 mph25.9 mph 28.8 mph46.3 mph
Humidity 98% 98% 98%
Pressure 30.00 in1015.90 in 29.91 in1012.90 in -
Precipitation 0.00 in0.00 in - -
Hour Temp Dew Point Humidity Winds Wind Gusts Pressure Precip Precip Rate Daily Precip Total
12:00 AM 57.0°F13.9°C 56.5°F13.6°C 98% 11.5 mph W18.5 kmh W 16.1 mph25.9 kmh 29.92 in1013.2 mb 0.00 in0.0 mm 0.00 in/hr0.0 mm/hr 0.00 in0.0 mm
12:30 AM 57.0°F13.9°C 56.5°F13.6°C 98% 15.0 mph WSW24.1 kmh WSW 24.2 mph38.9 kmh 29.92 in1013.2 mb 0.00 in0.0 mm 0.00 in/hr0.0 mm/hr 0.00 in0.0 mm
01:00 AM 56.9°F13.8°C 56.3°F13.5°C 98% 17.3 mph WNW27.8 kmh WNW 24.2 mph38.9 kmh 29.92 in1013.2 mb 0.00 in0.0 mm 0.00 in/hr0.0 mm/hr 0.00 in0.0 mm
01:30 AM 57.1°F13.9°C 56.6°F13.7°C 98% 13.8 mph W22.2 kmh W 20.7 mph33.3 kmh 29.92 in1013.2 mb 0.00 in0.0 mm 0.00 in/hr0.0 mm/hr 0.00 in0.0 mm
02:00 AM 57.1°F13.9°C 56.5°F13.6°C 98% 17.3 mph W27.8 kmh W 19.6 mph31.5 kmh 29.92 in1013.2 mb 0.00 in0.0 mm 0.00 in/hr0.0 mm/hr 0.00 in0.0 mm
02:30 AM 57.1°F13.9°C 56.6°F13.7°C 98% 18.4 mph W29.6 kmh W 18.4 mph29.6 kmh 29.92 in1013.2 mb 0.00 in0.0 mm 0.00 in/hr0.0 mm/hr 0.00 in0.0 mm
03:00 AM 57.3°F14.1°C 56.7°F13.7°C 98% 18.4 mph WSW29.6 kmh WSW 23.0 mph37.0 kmh 29.91 in1012.9 mb 0.00 in0.0 mm 0.00 in/hr0.0 mm/hr 0.00 in0.0 mm
03:30 AM 57.1°F13.9°C 56.5°F13.6°C 98% 18.4 mph WSW29.6 kmh WSW 21.9 mph35.2 kmh 29.91 in1012.9 mb 0.00 in0.0 mm 0.00 in/hr0.0 mm/hr 0.00 in0.0 mm
04:00 AM 56.4°F13.6°C 55.9°F13.3°C 98% 16.1 mph W25.9 kmh W 19.6 mph31.5 kmh 29.92 in1013.2 mb 0.00 in0.0 mm 0.00 in/hr0.0 mm/hr 0.00 in0.0 mm
04:30 AM 56.7°F13.7°C 56.2°F13.4°C 98% 20.7 mph WSW33.3 kmh WSW 27.6 mph44.4 kmh 29.92 in1013.2 mb 0.00 in0.0 mm 0.00 in/hr0.0 mm/hr 0.00 in0.0 mm
05:00 AM 56.4°F13.6°C 55.8°F13.2°C 98% 21.9 mph W35.2 kmh W 25.3 mph40.7 kmh 29.93 in1013.5 mb 0.00 in0.0 mm 0.00 in/hr0.0 mm/hr 0.00 in0.0 mm
05:30 AM 56.1°F13.4°C 55.6°F13.1°C 98% 16.1 mph WNW25.9 kmh WNW 20.7 mph33.3 kmh 29.93 in1013.5 mb 0.00 in0.0 mm 0.00 in/hr0.0 mm/hr 0.00 in0.0 mm
06:00 AM 56.6°F13.7°C 56.1°F13.4°C 98% 23.0 mph WSW37.0 kmh WSW 25.3 mph40.7 kmh 29.93 in1013.5 mb 0.00 in0.0 mm 0.00 in/hr0.0 mm/hr 0.00 in0.0 mm
06:30 AM 57.5°F14.2°C 56.9°F13.8°C 98% 24.2 mph W38.9 kmh W 31.1 mph50.1 kmh 29.93 in1013.5 mb 0.00 in0.0 mm 0.00 in/hr0.0 mm/hr 0.00 in0.0 mm
07:00 AM 58.2°F14.6°C 57.7°F14.3°C 98% 23.0 mph W37.0 kmh W 25.3 mph40.7 kmh 29.94 in1013.9 mb 0.00 in0.0 mm 0.00 in/hr0.0 mm/hr 0.00 in0.0 mm
07:30 AM 58.6°F14.8°C 58.0°F14.4°C 98% 24.2 mph WNW38.9 kmh WNW 26.5 mph42.6 kmh 29.95 in1014.2 mb 0.00 in0.0 mm 0.00 in/hr0.0 mm/hr 0.00 in0.0 mm
08:30 AM 59.4°F15.2°C 58.8°F14.9°C 98% 25.3 mph W40.7 kmh W 29.9 mph48.1 kmh 29.96 in1014.6 mb 0.00 in0.0 mm 0.00 in/hr0.0 mm/hr 0.00 in0.0 mm
09:00 AM 61.1°F16.2°C 60.5°F15.8°C 98% 27.6 mph W44.4 kmh W 31.1 mph50.1 kmh 29.96 in1014.6 mb 0.00 in0.0 mm 0.00 in/hr0.0 mm/hr 0.00 in0.0 mm
09:30 AM 61.6°F16.4°C 61.0°F16.1°C 98% 25.3 mph W40.7 kmh W 31.1 mph50.1 kmh 29.95 in1014.2 mb 0.00 in0.0 mm 0.00 in/hr0.0 mm/hr 0.00 in0.0 mm
10:00 AM 62.0°F16.7°C 61.4°F16.3°C 98% 25.3 mph W40.7 kmh W 29.9 mph48.1 kmh 29.95 in1014.2 mb 0.00 in0.0 mm 0.00 in/hr0.0 mm/hr 0.00 in0.0 mm
10:30 AM 62.5°F16.9°C 61.9°F16.6°C 98% 29.9 mph WNW48.1 kmh WNW 33.4 mph53.8 kmh 29.95 in1014.2 mb 0.00 in0.0 mm 0.00 in/hr0.0 mm/hr 0.00 in0.0 mm
11:00 AM 61.0°F16.1°C 60.4°F15.8°C 98% 27.6 mph WSW44.4 kmh WSW 29.9 mph48.1 kmh 29.95 in1014.2 mb 0.00 in0.0 mm 0.00 in/hr0.0 mm/hr 0.00 in0.0 mm
11:30 AM 63.2°F17.3°C 62.6°F17.0°C 98% 24.2 mph W38.9 kmh W 29.9 mph48.1 kmh 29.95 in1014.2 mb 0.00 in0.0 mm 0.00 in/hr0.0 mm/hr 0.00 in0.0 mm
12:00 PM 62.6°F17.0°C 62.0°F16.7°C 98% 29.9 mph W48.1 kmh W 34.5 mph55.5 kmh 29.94 in1013.9 mb 0.00 in0.0 mm 0.00 in/hr0.0 mm/hr 0.00 in0.0 mm
12:30 PM 62.8°F17.1°C 62.2°F16.8°C 98% 26.5 mph W42.6 kmh W 34.5 mph55.5 kmh 29.94 in1013.9 mb 0.00 in0.0 mm 0.00 in/hr0.0 mm/hr 0.00 in0.0 mm
01:00 PM 63.3°F17.4°C 62.7°F17.1°C 98% 31.1 mph W50.1 kmh W 34.5 mph55.5 kmh 29.94 in1013.9 mb 0.00 in0.0 mm 0.00 in/hr0.0 mm/hr 0.00 in0.0 mm
01:30 PM 63.7°F17.6°C 63.2°F17.3°C 98% 33.4 mph W53.8 kmh W 34.5 mph55.5 kmh 29.93 in1013.5 mb 0.00 in0.0 mm 0.00 in/hr0.0 mm/hr 0.00 in0.0 mm
02:00 PM 64.0°F17.8°C 63.4°F17.4°C 98% 29.9 mph W48.1 kmh W 34.5 mph55.5 kmh 29.93 in1013.5 mb 0.00 in0.0 mm 0.00 in/hr0.0 mm/hr 0.00 in0.0 mm
02:30 PM 63.5°F17.5°C 62.9°F17.2°C 98% 32.2 mph W51.8 kmh W 34.5 mph55.5 kmh 29.91 in1012.9 mb 0.00 in0.0 mm 0.00 in/hr0.0 mm/hr 0.00 in0.0 mm
03:00 PM 63.6°F17.6°C 63.0°F17.2°C 98% 34.5 mph W55.5 kmh W 41.4 mph66.6 kmh 29.91 in1012.9 mb 0.00 in0.0 mm 0.00 in/hr0.0 mm/hr 0.00 in0.0 mm
03:30 PM 63.3°F17.4°C 62.8°F17.1°C 98% 29.9 mph WSW48.1 kmh WSW 36.8 mph59.2 kmh 29.91 in1012.9 mb 0.00 in0.0 mm 0.00 in/hr0.0 mm/hr 0.00 in0.0 mm
04:00 PM 61.4°F16.3°C 60.8°F16.0°C 98% 31.1 mph W50.1 kmh W 38.0 mph61.2 kmh 29.92 in1013.2 mb 0.00 in0.0 mm 0.00 in/hr0.0 mm/hr 0.00 in0.0 mm
04:30 PM 62.6°F17.0°C 62.0°F16.7°C 98% 32.2 mph WNW51.8 kmh WNW 33.4 mph53.8 kmh 29.91 in1012.9 mb 0.00 in0.0 mm 0.00 in/hr0.0 mm/hr 0.00 in0.0 mm
05:00 PM 61.3°F16.3°C 60.7°F15.9°C 98% 31.1 mph WNW50.1 kmh WNW 32.2 mph51.8 kmh 29.92 in1013.2 mb 0.00 in0.0 mm 0.00 in/hr0.0 mm/hr 0.00 in0.0 mm
05:30 PM 61.0°F16.1°C 60.4°F15.8°C 98% 34.5 mph W55.5 kmh W 38.0 mph61.2 kmh 29.92 in1013.2 mb 0.00 in0.0 mm 0.00 in/hr0.0 mm/hr 0.00 in0.0 mm
06:00 PM 60.9°F16.1°C 60.3°F15.7°C 98% 26.5 mph W42.6 kmh W 32.2 mph51.8 kmh 29.93 in1013.5 mb 0.00 in0.0 mm 0.00 in/hr0.0 mm/hr 0.00 in0.0 mm
06:30 PM 60.7°F15.9°C 60.1°F15.6°C 98% 27.6 mph W44.4 kmh W 31.1 mph50.1 kmh 29.94 in1013.9 mb 0.00 in0.0 mm 0.00 in/hr0.0 mm/hr 0.00 in0.0 mm
07:00 PM 60.7°F15.9°C 60.1°F15.6°C 98% 27.6 mph W44.4 kmh W 29.9 mph48.1 kmh 29.94 in1013.9 mb 0.00 in0.0 mm 0.00 in/hr0.0 mm/hr 0.00 in0.0 mm
07:30 PM 60.8°F16.0°C 60.3°F15.7°C 98% 29.9 mph W48.1 kmh W 34.5 mph55.5 kmh 29.95 in1014.2 mb 0.00 in0.0 mm 0.00 in/hr0.0 mm/hr 0.00 in0.0 mm
08:00 PM 60.7°F15.9°C 60.2°F15.7°C 98% 24.2 mph W38.9 kmh W 34.5 mph55.5 kmh 29.96 in1014.6 mb 0.00 in0.0 mm 0.00 in/hr0.0 mm/hr 0.00 in0.0 mm
08:30 PM 61.0°F16.1°C 60.4°F15.8°C 98% 24.2 mph W38.9 kmh W 29.9 mph48.1 kmh 29.98 in1015.2 mb 0.00 in0.0 mm 0.00 in/hr0.0 mm/hr 0.00 in0.0 mm
09:00 PM 61.1°F16.2°C 60.6°F15.9°C 98% 18.4 mph WNW29.6 kmh WNW 26.5 mph42.6 kmh 30.00 in1015.9 mb 0.00 in0.0 mm 0.00 in/hr0.0 mm/hr 0.00 in0.0 mm
09:30 PM 61.3°F16.3°C 60.7°F15.9°C 98% 18.4 mph W29.6 kmh W 24.2 mph38.9 kmh 30.00 in1015.9 mb 0.00 in0.0 mm 0.00 in/hr0.0 mm/hr 0.00 in0.0 mm
10:00 PM 61.5°F16.4°C 60.9°F16.1°C 98% 23.0 mph W37.0 kmh W 27.6 mph44.4 kmh 30.00 in1015.9 mb 0.00 in0.0 mm 0.00 in/hr0.0 mm/hr 0.00 in0.0 mm
10:30 PM 61.4°F16.3°C 60.9°F16.1°C 98% 18.4 mph W29.6 kmh W 20.7 mph33.3 kmh 30.00 in1015.9 mb 0.00 in0.0 mm 0.00 in/hr0.0 mm/hr 0.00 in0.0 mm
11:30 PM 61.9°F16.6°C 61.3°F16.3°C 98% 20.7 mph W33.3 kmh W 21.9 mph35.2 kmh 30.00 in1015.9 mb 0.00 in0.0 mm 0.00 in/hr0.0 mm/hr 0.00 in0.0 mm